Terminal Aerodrome Forecast
Issued by NWS

Home | Current Version | Previous Version | Text Only | Print | Product List | Glossary On
Versions: 1 2 3 4 5 6 7 8 9 10 11 12 13 14 15
011
FTUS41 KPBZ 021736
TAFFKL
TAF
KFKL 021736Z 0218/0318 26014G20KT P6SM OVC015
     FM030200 27010G18KT P6SM -SHSN OVC007
     FM030700 28009KT P6SM VCSH OVC007
      AMD NOT SKED=

USA.gov is the U.S. government's official web portal to all federal, state and local government web resources and services.